createdAt,value
2019-01-21T00:01:36.222Z,17.90
2019-01-21T00:05:50.662Z,16.50
2019-01-21T00:10:04.179Z,15.17
2019-01-21T00:14:16.485Z,15.73
2019-01-21T00:18:28.681Z,14.00
2019-01-21T00:22:41.393Z,17.90
2019-01-21T00:26:53.838Z,16.97
2019-01-21T00:31:06.052Z,19.17
2019-01-21T00:35:18.430Z,19.10
2019-01-21T00:39:31.316Z,14.70
2019-01-21T00:43:43.603Z,14.73
2019-01-21T00:47:55.706Z,16.37
2019-01-21T00:52:07.922Z,14.67
2019-01-21T00:56:20.124Z,22.70
2019-01-21T01:00:32.732Z,22.30
2019-01-21T01:04:45.177Z,19.33
2019-01-21T01:08:57.346Z,17.50
2019-01-21T01:13:09.480Z,19.07
2019-01-21T01:17:21.686Z,19.37
2019-01-21T01:21:34.311Z,20.53
2019-01-21T01:25:46.845Z,19.53
2019-01-21T01:29:59.030Z,19.87
2019-01-21T01:34:11.822Z,21.60
2019-01-21T01:38:24.478Z,20.33
2019-01-21T01:42:36.687Z,24.13
2019-01-21T01:46:49.013Z,21.37
2019-01-21T01:51:01.815Z,19.37
2019-01-21T01:55:14.442Z,21.70
2019-01-21T01:59:27.150Z,22.30
2019-01-21T02:03:39.505Z,22.87
2019-01-21T02:07:51.815Z,21.07
2019-01-21T02:12:04.767Z,23.67
2019-01-21T02:16:17.265Z,23.77
2019-01-21T02:20:29.482Z,24.13
2019-01-21T02:24:44.303Z,24.07
2019-01-21T02:29:08.700Z,24.20
2019-01-21T02:33:57.877Z,25.20
2019-01-21T02:38:45.511Z,21.93
2019-01-21T02:43:28.571Z,19.57
2019-01-21T02:47:59.867Z,24.20
2019-01-21T02:52:30.445Z,29.80
2019-01-21T02:56:56.459Z,29.97
2019-01-21T03:01:51.053Z,31.20
2019-01-21T03:06:38.836Z,26.17
2019-01-21T03:11:05.984Z,25.13
2019-01-21T03:16:14.011Z,24.97
2019-01-21T03:20:37.067Z,23.10
2019-01-21T03:25:35.667Z,31.97
2019-01-21T03:30:22.190Z,27.97
2019-01-21T03:35:20.180Z,25.80
2019-01-21T03:40:20.634Z,28.70
2019-01-21T03:44:47.000Z,28.93
2019-01-21T03:49:08.875Z,25.93
2019-01-21T03:53:26.742Z,27.93
2019-01-21T03:57:55.555Z,33.93
2019-01-21T04:02:29.979Z,32.93
2019-01-21T04:07:31.521Z,31.30
2019-01-21T04:12:07.495Z,31.67
2019-01-21T04:16:47.325Z,36.50
2019-01-21T04:21:23.243Z,28.87
2019-01-21T04:26:10.583Z,28.97
2019-01-21T04:31:07.107Z,32.43
2019-01-21T04:35:51.346Z,33.10
2019-01-21T04:40:59.359Z,29.63
2019-01-21T04:45:28.936Z,32.53
2019-01-21T04:50:22.965Z,32.37
2019-01-21T04:55:12.403Z,59.47
2019-01-21T04:59:55.618Z,31.83
2019-01-21T05:04:31.513Z,37.20
2019-01-21T05:09:18.606Z,37.07
2019-01-21T05:14:03.779Z,37.30
2019-01-21T05:18:41.002Z,32.70
2019-01-21T05:23:42.306Z,35.67
2019-01-21T05:28:24.023Z,37.83
2019-01-21T05:33:15.172Z,39.43
2019-01-21T05:38:06.938Z,39.53
2019-01-21T05:42:52.608Z,38.53
2019-01-21T05:47:39.011Z,37.63
2019-01-21T05:52:17.970Z,32.83
2019-01-21T05:57:01.309Z,31.90
2019-01-21T06:01:52.802Z,35.30
2019-01-21T06:06:31.982Z,28.60
2019-01-21T06:11:15.409Z,25.80
2019-01-21T06:15:59.752Z,27.97
2019-01-21T06:20:49.170Z,32.90
2019-01-21T06:25:51.959Z,32.93
2019-01-21T06:30:29.795Z,33.23
2019-01-21T06:35:06.986Z,31.43
2019-01-21T06:39:56.994Z,27.67
2019-01-21T06:45:10.720Z,27.77
2019-01-21T06:50:06.250Z,30.40
2019-01-21T06:55:19.940Z,23.00
2019-01-21T07:00:12.658Z,27.80
2019-01-21T07:05:09.414Z,26.47
2019-01-21T07:09:52.562Z,24.73
2019-01-21T07:14:48.487Z,24.80
2019-01-21T07:19:30.381Z,24.37
2019-01-21T07:24:20.495Z,25.17
2019-01-21T07:29:10.794Z,29.20
2019-01-21T07:33:46.182Z,29.37
2019-01-21T07:38:29.178Z,30.73
2019-01-21T07:43:23.651Z,28.10
2019-01-21T07:48:15.201Z,23.40
2019-01-21T07:53:10.424Z,32.37
2019-01-21T07:58:21.157Z,31.67
2019-01-21T08:03:27.012Z,28.20
2019-01-21T08:08:00.801Z,25.67
2019-01-21T08:12:55.431Z,32.87
2019-01-21T08:18:12.737Z,30.53
2019-01-21T08:23:05.211Z,91.63
2019-01-21T08:27:56.488Z,37.77
2019-01-21T08:32:47.543Z,34.10
2019-01-21T08:37:13.191Z,35.30
2019-01-21T08:41:42.616Z,35.70
2019-01-21T08:46:21.470Z,35.53
2019-01-21T08:50:50.715Z,36.03
2019-01-21T08:55:38.700Z,34.20
2019-01-21T09:00:35.378Z,37.50
2019-01-21T09:04:57.327Z,36.70
2019-01-21T09:09:28.610Z,35.73
2019-01-21T09:14:06.233Z,36.43
2019-01-21T09:18:58.934Z,32.17
2019-01-21T09:23:35.299Z,31.10
2019-01-21T09:28:25.465Z,30.20
2019-01-21T09:33:01.003Z,34.83
2019-01-21T09:37:50.088Z,33.37
2019-01-21T09:42:38.709Z,32.40
2019-01-21T09:46:49.163Z,30.87
2019-01-21T09:51:06.379Z,26.97
2019-01-21T09:55:19.503Z,27.90
2019-01-21T09:59:34.179Z,25.53
2019-01-21T10:03:47.031Z,27.87
2019-01-21T10:08:14.170Z,29.57
2019-01-21T10:13:07.834Z,28.37
2019-01-21T10:17:51.263Z,30.03
2019-01-21T10:22:42.795Z,34.67
2019-01-21T10:27:49.991Z,28.03
2019-01-21T10:32:44.815Z,25.60
2019-01-21T10:37:26.807Z,27.80
2019-01-21T10:42:34.525Z,32.03
2019-01-21T10:47:32.795Z,30.83
2019-01-21T10:52:40.435Z,30.10
2019-01-21T10:57:32.779Z,29.17
2019-01-21T11:02:37.354Z,27.87
2019-01-21T11:07:48.467Z,25.60
2019-01-21T11:12:40.753Z,24.63
2019-01-21T11:17:25.097Z,22.80
2019-01-21T11:22:05.089Z,22.77
2019-01-21T11:26:52.493Z,22.10
2019-01-21T11:31:57.471Z,19.93
2019-01-21T11:36:45.199Z,19.60
2019-01-21T11:41:33.678Z,19.97
2019-01-21T11:46:32.547Z,16.40
2019-01-21T11:50:58.519Z,16.63
2019-01-21T11:55:53.168Z,15.90
2019-01-21T12:00:34.291Z,13.53
2019-01-21T12:05:02.102Z,11.93
2019-01-21T12:10:00.276Z,11.57
2019-01-21T12:15:01.724Z,9.43
2019-01-21T12:19:43.951Z,9.50
2019-01-21T12:24:22.378Z,12.00
2019-01-21T12:29:02.081Z,12.27
2019-01-21T12:33:46.078Z,10.53
2019-01-21T12:38:37.932Z,9.53
2019-01-21T12:43:12.462Z,8.73
2019-01-21T12:47:56.248Z,10.63
2019-01-21T12:52:31.160Z,10.83
2019-01-21T12:57:19.617Z,10.70
2019-01-21T13:02:09.293Z,11.03
2019-01-21T13:06:40.987Z,10.20
2019-01-21T13:11:12.817Z,10.30
2019-01-21T13:15:43.055Z,11.10
2019-01-21T13:20:30.742Z,10.07
2019-01-21T13:25:16.299Z,11.13
2019-01-21T13:30:03.153Z,11.87
2019-01-21T13:34:42.064Z,11.13
2019-01-21T13:39:43.228Z,9.93
2019-01-21T13:44:22.848Z,9.43
2019-01-21T13:49:01.511Z,11.20
2019-01-21T13:53:58.958Z,9.33
2019-01-21T13:58:51.435Z,10.53
2019-01-21T14:04:02.319Z,14.07
2019-01-21T14:08:21.500Z,9.23
2019-01-21T14:13:08.364Z,8.00
2019-01-21T14:17:53.807Z,9.00
2019-01-21T14:22:58.538Z,8.17
2019-01-21T14:27:58.754Z,9.03
2019-01-21T14:32:51.866Z,6.13
2019-01-21T14:37:24.852Z,9.57
2019-01-21T14:41:58.874Z,6.50
2019-01-21T14:46:53.513Z,6.53
2019-01-21T14:51:44.558Z,7.20
2019-01-21T14:56:06.624Z,9.13
2019-01-21T15:01:16.427Z,6.27
2019-01-21T15:06:00.315Z,5.30
2019-01-21T15:10:47.231Z,5.87
2019-01-21T15:15:52.348Z,6.00
2019-01-21T15:20:13.378Z,4.20
2019-01-21T15:25:01.713Z,5.73
2019-01-21T15:29:33.978Z,3.77
2019-01-21T15:34:28.751Z,5.40
2019-01-21T15:39:17.041Z,5.40
2019-01-21T15:43:52.948Z,3.60
2019-01-21T15:48:34.867Z,4.00
2019-01-21T15:53:15.151Z,4.07
2019-01-21T15:57:40.632Z,5.03
2019-01-21T16:02:36.735Z,2.87
2019-01-21T16:07:10.490Z,4.07
2019-01-21T16:11:50.107Z,4.93
2019-01-21T16:17:00.747Z,3.30
2019-01-21T16:21:58.891Z,5.07
2019-01-21T16:26:24.195Z,3.47
2019-01-21T16:30:52.511Z,3.43
2019-01-21T16:35:24.578Z,2.67
2019-01-21T16:40:08.401Z,4.33
2019-01-21T16:44:20.877Z,5.60
2019-01-21T16:48:33.374Z,3.40
2019-01-21T16:52:46.382Z,3.40
2019-01-21T16:56:58.687Z,3.97
2019-01-21T17:01:11.527Z,4.07
2019-01-21T17:05:24.042Z,3.90
2019-01-21T17:09:37.593Z,3.87
2019-01-21T17:13:50.042Z,5.13
2019-01-21T17:18:02.425Z,3.70
2019-01-21T17:22:15.139Z,3.90
2019-01-21T17:26:27.718Z,6.40
2019-01-21T17:30:39.934Z,4.40
2019-01-21T17:34:52.211Z,3.30
2019-01-21T17:39:06.814Z,3.80
2019-01-21T17:43:19.191Z,2.50
2019-01-21T17:47:31.639Z,3.87
2019-01-21T17:51:44.443Z,3.83
2019-01-21T17:55:56.761Z,3.43
2019-01-21T18:00:10.871Z,4.83
2019-01-21T18:04:23.384Z,4.57
2019-01-21T18:08:35.757Z,3.63
2019-01-21T18:12:47.962Z,4.97
2019-01-21T18:17:00.288Z,4.93
2019-01-21T18:21:12.943Z,2.60
2019-01-21T18:25:25.302Z,3.07
2019-01-21T18:29:37.507Z,4.23
2019-01-21T18:33:49.747Z,3.27
2019-01-21T18:38:03.040Z,3.23
2019-01-21T18:42:16.705Z,3.40
2019-01-21T18:46:29.198Z,3.70
2019-01-21T18:50:41.942Z,5.67
2019-01-21T18:54:54.319Z,7.80
2019-01-21T18:59:10.921Z,4.57
2019-01-21T19:03:23.107Z,2.80
2019-01-21T19:07:35.185Z,6.10
2019-01-21T19:11:47.779Z,6.00
2019-01-21T19:16:00.399Z,3.87
2019-01-21T19:20:13.608Z,5.03
2019-01-21T19:24:26.110Z,2.77
2019-01-21T19:28:38.405Z,5.07
2019-01-21T19:32:53.376Z,3.63
2019-01-21T19:37:05.943Z,4.07
2019-01-21T19:41:18.680Z,3.03
2019-01-21T19:45:31.035Z,3.13
2019-01-21T19:49:43.260Z,4.37
2019-01-21T19:53:55.543Z,7.27
2019-01-21T19:58:08.667Z,3.37
2019-01-21T20:02:21.663Z,3.93
2019-01-21T20:06:36.772Z,4.17
2019-01-21T20:10:49.239Z,6.50
2019-01-21T20:15:02.710Z,6.53
2019-01-21T20:19:15.221Z,3.77
2019-01-21T20:23:27.503Z,7.23
2019-01-21T20:27:40.020Z,3.87
2019-01-21T20:31:52.387Z,5.63
2019-01-21T20:36:05.040Z,3.83
2019-01-21T20:40:20.788Z,7.23
2019-01-21T20:44:33.314Z,8.77
2019-01-21T20:48:45.826Z,6.77
2019-01-21T20:52:58.186Z,4.07
2019-01-21T20:57:10.824Z,6.93
2019-01-21T21:01:26.231Z,7.77
2019-01-21T21:05:38.606Z,5.37
2019-01-21T21:09:51.164Z,6.10
2019-01-21T21:14:04.019Z,6.00
2019-01-21T21:18:16.235Z,6.07
2019-01-21T21:22:28.316Z,5.87
2019-01-21T21:26:40.442Z,4.80
2019-01-21T21:30:53.114Z,7.20
2019-01-21T21:35:06.160Z,10.03
2019-01-21T21:39:18.314Z,4.87
2019-01-21T21:43:31.005Z,4.13
2019-01-21T21:47:43.570Z,6.77
2019-01-21T21:51:55.876Z,2.97
2019-01-21T21:56:08.045Z,5.10
2019-01-21T22:00:22.921Z,2.30
2019-01-21T22:04:35.119Z,5.17
2019-01-21T22:08:47.267Z,7.27
2019-01-21T22:12:59.378Z,4.57
2019-01-21T22:17:11.479Z,6.40
2019-01-21T22:21:24.278Z,8.57
2019-01-21T22:25:36.862Z,7.63
2019-01-21T22:29:49.162Z,11.77
2019-01-21T22:34:01.533Z,5.90
2019-01-21T22:38:14.259Z,7.07
2019-01-21T22:42:26.703Z,6.07
2019-01-21T22:46:39.220Z,5.17
2019-01-21T22:50:52.143Z,4.10
2019-01-21T22:55:04.770Z,7.97
2019-01-21T22:59:17.574Z,6.57
2019-01-21T23:03:30.900Z,7.83
2019-01-21T23:07:43.589Z,6.47
2019-01-21T23:11:55.876Z,7.17
2019-01-21T23:16:08.175Z,8.37
2019-01-21T23:20:20.980Z,4.47
2019-01-21T23:24:33.440Z,4.30
2019-01-21T23:28:45.634Z,5.97
2019-01-21T23:32:57.930Z,9.00
2019-01-21T23:37:10.223Z,8.07
2019-01-21T23:41:22.955Z,9.20
2019-01-21T23:45:35.428Z,5.07
2019-01-21T23:49:47.939Z,10.50
2019-01-21T23:54:00.616Z,6.63
2019-01-21T23:58:13.058Z,7.10
